createdAt,value
2023-09-13T00:03:45.568Z,23.95
2023-09-13T00:08:48.514Z,25.80
2023-09-13T00:13:51.340Z,22.75
2023-09-13T00:18:54.078Z,18.33
2023-09-13T00:23:56.730Z,19.88
2023-09-13T00:28:59.394Z,20.98
2023-09-13T00:34:02.776Z,16.58
2023-09-13T00:39:06.927Z,21.40
2023-09-13T00:44:09.627Z,18.58
2023-09-13T00:49:12.393Z,24.73
2023-09-13T00:54:15.382Z,25.55
2023-09-13T00:59:20.112Z,22.80
2023-09-13T01:04:23.251Z,20.10
2023-09-13T01:09:28.015Z,17.90
2023-09-13T01:14:30.692Z,17.83
2023-09-13T01:20:08.217Z,17.40
2023-09-13T01:25:18.946Z,19.15
2023-09-13T01:30:23.766Z,21.15
2023-09-13T01:35:26.580Z,19.55
2023-09-13T01:40:34.129Z,18.13
2023-09-13T01:45:38.445Z,18.80
2023-09-13T01:50:41.979Z,19.95
2023-09-13T01:55:45.017Z,22.40
2023-09-13T02:00:48.128Z,18.63
2023-09-13T02:05:51.086Z,22.70
2023-09-13T02:10:54.076Z,17.30
2023-09-13T02:15:56.876Z,27.17
2023-09-13T02:20:59.801Z,20.33
2023-09-13T02:26:02.588Z,17.98
2023-09-13T02:31:05.664Z,20.25
2023-09-13T02:36:08.822Z,28.60
2023-09-13T02:41:12.165Z,25.77
2023-09-13T02:46:15.007Z,25.83
2023-09-13T02:51:17.922Z,28.85
2023-09-13T02:56:20.778Z,30.13
2023-09-13T03:01:23.809Z,28.00
2023-09-13T03:06:26.660Z,31.17
2023-09-13T03:11:31.036Z,24.25
2023-09-13T03:16:34.163Z,29.95
2023-09-13T03:21:38.020Z,24.52
2023-09-13T03:26:41.000Z,22.90
2023-09-13T03:31:44.608Z,22.55
2023-09-13T03:36:51.192Z,22.08
2023-09-13T03:41:54.545Z,24.00
2023-09-13T03:46:58.238Z,26.23
2023-09-13T03:52:02.826Z,21.88
2023-09-13T03:57:07.044Z,20.67
2023-09-13T04:02:10.177Z,24.98
2023-09-13T04:07:13.235Z,22.23
2023-09-13T04:12:16.120Z,20.67
2023-09-13T04:17:19.852Z,27.88
2023-09-13T04:22:22.966Z,24.08
2023-09-13T04:27:26.432Z,43.40
2023-09-13T04:32:30.306Z,30.23
2023-09-13T04:37:34.377Z,27.58
2023-09-13T04:42:51.356Z,26.33
2023-09-13T04:47:55.033Z,23.65
2023-09-13T04:52:57.725Z,28.92
2023-09-13T04:58:00.957Z,27.85
2023-09-13T05:03:04.042Z,27.77
2023-09-13T05:08:06.892Z,30.23
2023-09-13T05:13:10.229Z,23.00
2023-09-13T05:18:13.236Z,24.08
2023-09-13T05:23:15.905Z,18.15
2023-09-13T05:28:18.570Z,16.02
2023-09-13T05:33:21.438Z,42.70
2023-09-13T05:38:24.810Z,17.58
2023-09-13T05:43:30.449Z,17.02
2023-09-13T05:48:34.178Z,14.35
2023-09-13T05:53:37.016Z,15.52
2023-09-13T05:58:44.774Z,14.40
2023-09-13T06:03:48.153Z,17.67
2023-09-13T06:08:50.968Z,15.73
2023-09-13T06:13:53.688Z,15.35
2023-09-13T06:18:56.452Z,12.48
2023-09-13T06:23:59.168Z,9.85
2023-09-13T06:29:03.446Z,8.52
2023-09-13T06:34:21.986Z,10.40
2023-09-13T06:39:28.324Z,10.13
2023-09-13T06:44:45.495Z,8.73
2023-09-13T06:49:51.861Z,8.40
2023-09-13T06:54:56.058Z,9.27
2023-09-13T07:00:04.530Z,8.50
2023-09-13T07:10:14.158Z,18.25
2023-09-13T07:34:52.432Z,9.15
2023-09-13T07:39:55.389Z,7.35
2023-09-13T07:44:58.194Z,9.93
2023-09-13T07:50:01.713Z,8.40
2023-09-13T07:55:06.486Z,14.27
2023-09-13T08:00:09.750Z,7.93
2023-09-13T08:05:14.938Z,8.80
2023-09-13T08:10:17.708Z,9.05
2023-09-13T08:15:30.863Z,8.93
2023-09-13T08:20:41.678Z,6.00
2023-09-13T08:25:45.526Z,6.05
2023-09-13T08:30:50.509Z,8.68
2023-09-13T08:35:53.212Z,7.50
2023-09-13T08:40:56.309Z,8.43
2023-09-13T08:46:01.486Z,4.95
2023-09-13T08:51:05.362Z,12.18
2023-09-13T08:56:10.236Z,9.63
2023-09-13T09:01:14.816Z,7.72
2023-09-13T09:06:19.389Z,6.95
2023-09-13T09:11:27.104Z,7.22
2023-09-13T09:16:32.363Z,13.07
2023-09-13T09:21:39.272Z,9.70
2023-09-13T09:26:41.887Z,8.38
2023-09-13T09:31:44.623Z,10.65
2023-09-13T09:36:48.312Z,10.82
2023-09-13T09:41:59.549Z,10.30
2023-09-13T09:47:02.256Z,8.25
2023-09-13T09:52:05.934Z,10.13
2023-09-13T09:57:09.584Z,5.90
2023-09-13T10:02:12.360Z,7.25
2023-09-13T10:07:15.256Z,8.80
2023-09-13T10:12:17.936Z,9.65
2023-09-13T10:17:21.690Z,10.40
2023-09-13T10:22:26.800Z,8.07
2023-09-13T10:27:30.897Z,6.78
2023-09-13T10:32:44.094Z,5.63
2023-09-13T10:38:25.917Z,9.18
2023-09-13T10:43:29.186Z,7.78
2023-09-13T10:48:32.739Z,5.22
2023-09-13T10:53:36.464Z,7.88
2023-09-13T10:58:40.540Z,5.68
2023-09-13T11:03:43.971Z,6.57
2023-09-13T11:08:47.433Z,18.67
2023-09-13T11:13:53.900Z,12.55
2023-09-13T11:18:58.552Z,7.25
2023-09-13T11:24:04.662Z,4.57
2023-09-13T11:29:28.886Z,8.18
2023-09-13T11:34:35.972Z,8.05
2023-09-13T11:39:40.061Z,10.18
2023-09-13T11:44:59.090Z,5.78
2023-09-13T11:55:27.083Z,5.70
2023-09-13T12:05:54.059Z,6.13
2023-09-13T12:11:12.853Z,6.95
2023-09-13T12:16:18.973Z,6.78
2023-09-13T12:21:22.019Z,26.60
2023-09-13T12:26:27.461Z,8.38
2023-09-13T12:31:30.060Z,4.85
2023-09-13T12:36:33.658Z,7.80
2023-09-13T12:41:36.410Z,6.63
2023-09-13T12:46:41.207Z,7.85
2023-09-13T12:51:44.340Z,5.00
2023-09-13T12:56:47.008Z,7.32
2023-09-13T13:01:55.911Z,6.28
2023-09-13T13:07:01.157Z,5.95
2023-09-13T13:12:04.267Z,4.28
2023-09-13T13:17:07.012Z,4.75
2023-09-13T13:22:13.245Z,7.03
2023-09-13T13:27:16.038Z,6.63
2023-09-13T13:32:19.060Z,5.22
2023-09-13T13:37:21.657Z,6.75
2023-09-13T13:42:24.368Z,7.03
2023-09-13T13:47:27.132Z,8.13
2023-09-13T13:52:29.852Z,6.68
2023-09-13T13:57:43.489Z,6.00
2023-09-13T14:02:47.869Z,7.18
2023-09-13T14:07:50.920Z,5.75
2023-09-13T14:12:57.573Z,5.45
2023-09-13T14:18:00.402Z,4.90
2023-09-13T14:23:04.310Z,6.05
2023-09-13T14:28:10.709Z,8.82
2023-09-13T14:33:18.140Z,6.45
2023-09-13T14:38:22.214Z,7.65
2023-09-13T14:43:25.066Z,7.72
2023-09-13T14:48:28.021Z,6.07
2023-09-13T14:53:31.018Z,12.80
2023-09-13T14:58:36.475Z,14.60
2023-09-13T15:03:39.670Z,8.07
2023-09-13T15:08:42.525Z,8.15
2023-09-13T15:13:47.269Z,6.38
2023-09-13T15:18:51.180Z,8.75
2023-09-13T15:23:54.076Z,15.80
2023-09-13T15:28:57.883Z,9.48
2023-09-13T15:34:02.398Z,9.75
2023-09-13T15:39:05.998Z,9.48
2023-09-13T15:44:08.684Z,9.63
2023-09-13T15:49:11.548Z,11.02
2023-09-13T15:54:14.833Z,16.90
2023-09-13T15:59:17.515Z,12.50
2023-09-13T16:04:20.435Z,9.93
2023-09-13T16:09:23.227Z,18.77
2023-09-13T16:14:34.457Z,15.40
2023-09-13T16:19:37.409Z,16.42
2023-09-13T16:24:40.168Z,19.45
2023-09-13T16:29:42.905Z,17.10
2023-09-13T16:34:45.682Z,18.10
2023-09-13T16:39:48.408Z,14.80
2023-09-13T16:44:51.092Z,13.90
2023-09-13T16:49:53.806Z,21.58
2023-09-13T16:54:59.412Z,17.27
2023-09-13T17:00:03.048Z,18.58
2023-09-13T17:05:08.115Z,16.50
2023-09-13T17:10:10.936Z,15.20
2023-09-13T17:15:13.639Z,16.40
2023-09-13T17:20:16.592Z,18.30
2023-09-13T17:25:19.339Z,17.83
2023-09-13T17:30:22.211Z,10.75
2023-09-13T17:35:25.161Z,17.65
2023-09-13T17:40:28.659Z,15.63
2023-09-13T17:45:31.726Z,17.95
2023-09-13T17:50:35.277Z,23.48
2023-09-13T17:55:38.014Z,20.20
2023-09-13T18:00:40.963Z,22.45
2023-09-13T18:05:45.321Z,20.15
2023-09-13T18:10:48.126Z,22.90
2023-09-13T18:15:50.967Z,17.40
2023-09-13T18:20:54.183Z,20.95
2023-09-13T18:25:57.097Z,25.58
2023-09-13T18:31:07.699Z,32.53
2023-09-13T18:36:10.600Z,20.55
2023-09-13T18:41:13.344Z,20.90
2023-09-13T18:46:16.362Z,19.10
2023-09-13T18:51:19.305Z,22.63
2023-09-13T18:56:21.968Z,22.67
2023-09-13T19:01:24.748Z,26.88
2023-09-13T19:06:27.640Z,21.83
2023-09-13T19:11:30.417Z,17.52
2023-09-13T19:16:34.698Z,21.42
2023-09-13T19:21:37.982Z,18.75
2023-09-13T19:26:42.171Z,18.35
2023-09-13T19:31:45.619Z,25.60
2023-09-13T19:36:48.396Z,36.83
2023-09-13T19:41:51.414Z,16.95
2023-09-13T19:46:54.175Z,19.00
2023-09-13T19:51:57.004Z,18.95
2023-09-13T19:57:01.756Z,20.88
2023-09-13T20:02:07.112Z,26.00
2023-09-13T20:07:11.389Z,20.27
2023-09-13T20:12:14.029Z,29.30
2023-09-13T20:17:16.719Z,21.33
2023-09-13T20:22:19.363Z,20.83
2023-09-13T20:27:22.029Z,27.33
2023-09-13T20:32:24.674Z,26.27
2023-09-13T20:37:28.263Z,31.88
2023-09-13T20:42:31.089Z,20.70
2023-09-13T20:47:35.832Z,35.95
2023-09-13T20:52:38.844Z,24.77
2023-09-13T20:57:41.517Z,29.17
2023-09-13T21:02:44.203Z,22.75
2023-09-13T21:07:46.825Z,24.55
2023-09-13T21:12:49.567Z,31.67
2023-09-13T21:17:52.457Z,25.27
2023-09-13T21:22:55.075Z,27.27
2023-09-13T21:27:57.728Z,28.73
2023-09-13T21:33:00.608Z,28.90
2023-09-13T21:38:03.433Z,23.55
2023-09-13T21:43:06.074Z,27.77
2023-09-13T21:48:10.453Z,27.05
2023-09-13T21:53:16.897Z,24.52
2023-09-13T21:58:21.081Z,22.30
2023-09-13T22:03:25.901Z,31.98
2023-09-13T22:08:28.654Z,27.08
2023-09-13T22:13:31.383Z,16.67
2023-09-13T22:18:34.207Z,19.13
2023-09-13T22:23:37.017Z,16.27
2023-09-13T22:28:39.752Z,17.85
2023-09-13T22:33:42.483Z,19.65
2023-09-13T22:38:54.421Z,27.38
2023-09-13T22:44:05.306Z,23.80
2023-09-13T22:49:08.026Z,20.40
2023-09-13T22:54:10.723Z,19.95
2023-09-13T22:59:13.446Z,20.73
2023-09-13T23:04:16.354Z,22.33
2023-09-13T23:09:20.048Z,21.73
2023-09-13T23:14:23.748Z,18.95
2023-09-13T23:19:26.609Z,27.42
2023-09-13T23:24:30.789Z,20.67
2023-09-13T23:29:34.153Z,21.67
2023-09-13T23:34:36.888Z,20.95
2023-09-13T23:39:39.513Z,24.38
2023-09-13T23:44:42.187Z,24.10
2023-09-13T23:49:44.852Z,22.63
2023-09-13T23:54:47.560Z,20.15
2023-09-13T23:59:51.936Z,21.90
